Data for 09/25/2006

Time Sea-Level Adjusted Pressure Absolute Pressure Temperature Relative Humidity Dew Point   
(mb) (inHg) (mb) (inHg) (C) (F) (%) (C) (F)
00:05 1025 30.27 855 25.25 7.1 44.7 70 1.9 35.5
00:10 1025 30.27 855 25.25 6.9 44.4 70 1.8 35.2
00:15 1025 30.27 855 25.25 7 44.7 69 1.8 35.3
00:20 1025 30.27 855 25.25 6.8 44.2 70 1.7 35
00:25 1025 30.27 855 25.25 6.6 44 71 1.8 35.3
00:30 1025 30.27 855 25.25 6.4 43.5 72 1.7 35.1
00:35 1025 30.27 855 25.25 6.4 43.4 72 1.7 35
00:40 1025 30.27 855 25.25 6.2 43.1 72 1.5 34.8
00:45 1025 30.27 855 25.25 6.2 43.2 72 1.7 35
00:50 1025 30.27 855 25.25 6.3 43.4 72 1.6 34.9
00:55 1025 30.27 855 25.25 6.4 43.5 71 1.5 34.7
01:00 1025 30.27 855 25.25 6.5 43.7 71 1.7 35
01:05 1025 30.27 855 25.25 6.4 43.6 71 1.5 34.7
01:10 1025 30.27 855 25.25 6.5 43.7 72 1.7 35.1
01:15 1025 30.27 855 25.25 6.2 43.1 73 1.6 34.9
01:20 1025 30.27 855 25.25 6.2 43.2 72 1.6 35
01:25 1025 30.27 855 25.25 6.1 43 73 1.6 34.9
01:30 1025 30.27 855 25.25 6 42.8 73 1.5 34.7
01:35 1025 30.27 855 25.25 6.1 43.1 72 1.4 34.6
01:40 1025 30.27 855 25.25 6.2 43.1 73 1.6 35
01:45 1025 30.27 855 25.25 6 42.8 73 1.5 34.8
01:50 1025 30.27 855 25.25 6.1 42.9 73 1.6 34.8
01:55 1025 30.27 855 25.25 6 42.8 73 1.6 34.9
02:00 1025 30.27 855 25.25 6.1 43 72 1.5 34.7
02:05 1025 30.27 855 25.25 6.2 43.2 72 1.6 35
02:10 1026 30.3 855 25.25 6.1 43 73 1.6 34.8
02:15 1026 30.3 855 25.25 6.3 43.3 72 1.6 34.8
02:20 1026 30.3 855 25.25 6.4 43.5 71 1.6 34.9
02:25 1026 30.3 855 25.25 6.5 43.7 70 1.5 34.8
02:30 1026 30.3 855 25.25 6.8 44.2 69 1.5 34.7
02:35 1026 30.3 855 25.25 7.1 44.7 68 1.7 35
02:40 1026 30.3 855 25.25 6.8 44.2 70 1.7 35.1
02:45 1026 30.3 855 25.25 6.8 44.2 70 1.7 35
02:50 1026 30.3 855 25.25 6.5 43.6 72 1.8 35.2
02:55 1026 30.3 855 25.25 6.3 43.3 72 1.5 34.7
03:00 1026 30.3 855 25.25 6.6 43.9 70 1.6 35
03:05 1026 30.3 855 25.25 6.4 43.5 72 1.7 35.1
03:10 1026 30.3 855 25.25 6.3 43.4 72 1.6 35
03:15 1026 30.3 855 25.25 5.9 42.7 75 1.8 35.2
03:20 1026 30.3 855 25.25 5.6 42.2 74 1.5 34.6
03:25 1026 30.3 855 25.25 5.3 41.6 77 1.7 35
03:30 1026 30.3 855 25.25 5.1 41.2 77 1.4 34.6
03:35 1026 30.3 855 25.25 5.7 42.2 73 1.3 34.3
03:40 1026 30.3 855 25.25 6.1 43 72 1.5 34.7
03:45 1026 30.3 855 25.25 6 42.8 74 1.7 35
03:50 1026 30.3 855 25.25 5.9 42.7 74 1.6 34.9
03:55 1026 30.3 855 25.25 6.2 43.1 73 1.6 34.9
04:00 1026 30.3 855 25.25 6.7 44.1 69 1.5 34.8
04:05 1026 30.3 855 25.25 6.9 44.4 69 1.6 34.9
04:10 1026 30.3 855 25.25 7.1 44.7 68 1.6 34.9
04:15 1026 30.3 855 25.25 6.8 44.3 70 1.7 35.1
04:20 1026 30.3 855 25.25 6.2 43.2 74 1.8 35.3
04:25 1026 30.3 855 25.25 5.6 42 76 1.7 35
04:30 1026 30.3 855 25.25 5.5 41.9 75 1.4 34.6
04:35 1026 30.3 855 25.25 5.7 42.2 75 1.5 34.7
04:40 1026 30.3 855 25.25 5.5 41.9 76 1.6 34.9
04:45 1026 30.3 855 25.25 5.1 41.2 77 1.4 34.5
04:50 1026 30.3 855 25.25 5.1 41.1 77 1.4 34.5
04:55 1026 30.3 855 25.25 5.1 41.1 77 1.3 34.3
05:00 1026 30.3 855 25.25 5.1 41.1 77 1.3 34.3
05:05 1026 30.3 855 25.25 5.2 41.3 76 1.3 34.4
05:10 1026 30.3 855 25.25 5.1 41.2 77 1.3 34.4
05:15 1026 30.3 855 25.25 5 40.9 77 1.3 34.4
05:20 1026 30.3 855 25.25 4.8 40.7 78 1.2 34.2
05:25 1026 30.3 855 25.25 4.8 40.7 77 1.2 34.2
05:30 1026 30.3 855 25.25 4.9 40.7 77 1.1 34.1
05:35 1026 30.3 855 25.25 5.1 41.1 76 1.2 34.1
05:40 1026 30.3 855 25.25 5.2 41.3 76 1.2 34.2
05:45 1026 30.3 855 25.25 5.4 41.7 74 1.2 34.2
05:50 1026 30.3 855 25.25 5.7 42.2 74 1.3 34.4
05:55 1026 30.3 855 25.25 5.8 42.4 73 1.4 34.5
06:00 1026 30.3 855 25.25 5.6 42.1 75 1.5 34.7
06:05 1026 30.3 855 25.25 5.5 42 74 1.3 34.4
06:10 1026 30.3 855 25.25 5.7 42.3 73 1.3 34.4
06:15 1026 30.3 855 25.25 5.9 42.6 73 1.4 34.6
06:20 1026 30.3 855 25.25 5.7 42.3 74 1.5 34.7
06:25 1026 30.3 855 25.25 5.7 42.2 74 1.5 34.7
06:30 1026 30.3 855 25.25 5.4 41.7 76 1.5 34.7
06:35 1026 30.3 855 25.25 5 40.9 78 1.4 34.5
06:40 1026 30.3 855 25.25 4.5 40.1 80 1.3 34.4
06:45 1026 30.3 855 25.25 4.2 39.6 80 1.1 34.1
06:50 1026 30.3 855 25.25 4.9 40.8 77 1.2 34.2
06:55 1026 30.3 855 25.25 5.1 41.1 76 1.2 34.2
07:00 1026 30.3 855 25.25 4.8 40.6 79 1.4 34.5
07:05 1026 30.3 855 25.25 4.4 40 79 1.2 34.2
07:10 1026 30.3 855 25.25 4.3 39.8 80 1.1 34
07:15 1026 30.3 855 25.25 4.2 39.5 81 1.1 34
07:20 1026 30.3 855 25.25 4.2 39.6 80 1.1 34
07:25 1026 30.3 855 25.25 4.6 40.3 78 1 33.9
07:30 1026 30.3 855 25.25 4.8 40.6 78 1.3 34.3
07:35 1026 30.3 855 25.25 4.6 40.3 79 1.2 34.2
07:40 1026 30.3 855 25.25 4.6 40.3 78 1.1 34
07:45 1026 30.3 855 25.25 4.8 40.6 77 1.1 34
07:50 1026 30.3 855 25.25 5.3 41.5 74 1 33.9
07:55 1026 30.3 855 25.25 6 42.8 71 1.1 34
08:00 1026 30.3 855 25.25 6.3 43.4 71 1.4 34.5
08:05 1026 30.3 855 25.25 6.5 43.7 70 1.4 34.5
08:10 1026 30.3 855 25.25 6.6 43.9 70 1.5 34.6
08:15 1026 30.3 855 25.25 6.7 44.1 69 1.5 34.7
08:20 1026 30.3 855 25.25 6.6 43.9 70 1.6 34.9
08:25 1026 30.3 855 25.25 6.7 44.1 71 1.9 35.4
08:30 1026 30.3 855 25.25 6.9 44.3 70 1.9 35.4
08:35 1026 30.3 855 25.25 6.8 44.2 71 1.8 35.2
08:40 1026 30.3 855 25.25 6.8 44.2 71 1.8 35.2
08:45 1026 30.3 855 25.25 7 44.7 69 1.8 35.3
08:50 1026 30.3 855 25.25 7.6 45.7 66 1.8 35.2
08:55 1026 30.3 855 25.25 8.5 47.2 64 2 35.7
09:00 1026 30.3 855 25.25 9 48.3 63 2.4 36.3
09:05 1026 30.3 855 25.25 9.6 49.4 59 2.1 35.9
09:10 1026 30.3 855 25.25 9.5 49.1 61 2.4 36.3
09:15 1026 30.3 855 25.25 9.9 49.7 60 2.5 36.5
09:20 1026 30.3 855 25.25 10.3 50.6 57 2.2 35.9
09:25 1026 30.3 855 25.25 10.6 51 58 2.7 36.9
09:30 1026 30.3 855 25.25 11 51.7 58 3 37.3
09:35 1026 30.3 855 25.25 11.3 52.4 56 2.9 37.2
09:40 1026 30.3 855 25.25 11.4 52.5 56 2.9 37.3
09:45 1026 30.3 855 25.25 11.8 53.2 53 2.6 36.7
09:50 1026 30.3 855 25.25 12.3 54.1 51 2.6 36.7
09:55 1026 30.3 855 25.25 12.2 53.9 52 2.7 36.8
10:00 1026 30.3 855 25.25 12.2 53.9 52 2.7 36.8
10:05 1026 30.3 855 25.25 12 53.7 53 2.9 37.3
10:10 1026 30.3 855 25.25 12.3 54.1 52 2.7 36.9
10:15 1026 30.3 855 25.25 12.1 53.8 53 2.9 37.3
10:20 1026 30.3 855 25.25 12.4 54.3 53 3.2 37.7
10:25 1026 30.3 855 25.25 13.4 56.1 48 2.7 36.9
10:30 1025 30.27 855 25.25 13.3 55.9 49 2.9 37.3
10:35 1025 30.27 855 25.25 13.8 56.9 47 2.9 37.2
10:40 1025 30.27 855 25.25 14.5 58.1 45 2.8 37.1
10:45 1025 30.27 855 25.25 15.1 59.3 44 3.1 37.6
10:50 1025 30.27 855 25.25 15.5 59.8 43 3.1 37.5
10:55 1025 30.27 855 25.25 15.8 60.4 42 3 37.3
11:00 1025 30.27 855 25.25 15.9 60.5 42 3.2 37.8
11:05 1025 30.27 855 25.25 15.3 59.6 44 3.1 37.6
11:10 1025 30.27 855 25.25 15.4 59.8 43 3.1 37.6
11:15 1025 30.27 855 25.25 15.7 60.3 42 3 37.4
11:20 1025 30.27 855 25.25 16 60.8 42 3.3 37.9
11:25 1025 30.27 854 25.22 15.8 60.4 43 3.3 38
11:30 1025 30.27 854 25.22 16.1 60.9 43 3.6 38.5
11:35 1025 30.27 854 25.22 15.7 60.3 44 3.6 38.5
11:40 1025 30.27 854 25.22 15 58.9 45 3.3 37.9
11:45 1025 30.27 854 25.22 15.6 60 44 3.4 38.2
11:50 1025 30.27 854 25.22 14.9 58.8 47 3.7 38.6
11:55 1025 30.27 854 25.22 14.4 58 47 3.4 38
12:00 1025 30.27 854 25.22 15.1 59.2 46 3.8 38.8
12:05 1025 30.27 854 25.22 15.7 60.2 43 3.4 38.1
12:10 1025 30.27 854 25.22 17 62.6 39 2.9 37.3
12:15 1025 30.27 854 25.22 17.5 63.6 38 3 37.4
12:20 1025 30.27 854 25.22 18 64.4 35 2.5 36.4
12:25 1025 30.27 854 25.22 18.2 64.7 35 2.8 37
12:30 1025 30.27 854 25.22 18.6 65.5 35 2.8 37.1
12:35 1025 30.27 854 25.22 18.5 65.3 35 2.8 37.1
12:40 1025 30.27 854 25.22 18.3 64.9 37 3.4 38.2
12:45 1025 30.27 854 25.22 17.8 64.1 34 2.1 35.7
12:50 1025 30.27 854 25.22 17.2 62.9 39 3.2 37.7
12:55 1025 30.27 854 25.22 18 64.4 33 1.5 34.7
13:00 1025 30.27 854 25.22 18.5 65.2 36 3.1 37.6
13:05 1025 30.27 854 25.22 18.2 64.7 35 2.7 36.9
13:10 1024 30.24 854 25.22 19.3 66.7 33 2.9 37.3
13:15 1024 30.24 854 25.22 19.6 67.3 32 2.8 37.1
13:20 1024 30.24 854 25.22 19.2 66.6 34 3.3 38
13:25 1024 30.24 854 25.22 19.7 67.5 32 2.8 37.1
13:30 1024 30.24 853 25.19 20 68 30 1.9 35.4
13:35 1024 30.24 853 25.19 20.2 68.3 30 2.4 36.3
13:40 1024 30.24 853 25.19 20.5 68.9 29 2.2 35.9
13:45 1024 30.24 853 25.19 20.8 69.5 27 1.4 34.6
13:50 1024 30.24 853 25.19 20.8 69.5 28 1.6 34.8
13:55 1024 30.24 853 25.19 20.3 68.5 30 2.3 36.1
14:00 1024 30.24 853 25.19 20.6 69.1 28 1.8 35.3
14:05 1024 30.24 853 25.19 19.4 66.8 31 1.9 35.4
14:10 1024 30.24 853 25.19 19.2 66.6 30 1.4 34.5
14:15 1024 30.24 853 25.19 19.7 67.5 29 1.2 34.1
14:20 1024 30.24 853 25.19 20.7 69.2 29 2 35.5
14:25 1024 30.24 853 25.19 20.1 68.1 29 1.9 35.3
14:30 1024 30.24 853 25.19 20.6 69 28 1.4 34.6
14:35 1024 30.24 853 25.19 20.2 68.4 29 1.8 35.2
14:40 1023 30.21 853 25.19 19.8 67.6 29 1.4 34.5
14:45 1023 30.21 853 25.19 19.9 67.9 28 1 33.7
14:50 1023 30.21 853 25.19 20.7 69.2 26 0.4 32.8
14:55 1023 30.21 852 25.16 20.5 68.8 26 0.5 33
15:00 1023 30.21 852 25.16 20.7 69.3 25 0.2 32.4
15:05 1023 30.21 852 25.16 21.4 70.6 23 -0.6 30.9
15:10 1023 30.21 852 25.16 21.7 71 22 -0.5 31.1
15:15 1023 30.21 852 25.16 22 71.5 23 0 32
15:20 1023 30.21 852 25.16 20.9 69.7 25 0.3 32.6
15:25 1023 30.21 852 25.16 20.1 68.3 25 -0.1 31.8
15:30 1023 30.21 852 25.16 20 68 25 -0.4 31.3
15:35 1023 30.21 852 25.16 20.1 68.1 25 -0.6 30.9
15:40 1023 30.21 852 25.16 20.9 69.6 22 -1.3 29.6
15:45 1023 30.21 852 25.16 21.9 71.4 22 -0.5 31.1
15:50 1023 30.21 852 25.16 22.5 72.4 21 -0.6 31
15:55 1023 30.21 852 25.16 22.8 73 22 0 32
16:00 1023 30.21 852 25.16 21.5 70.7 24 0.1 32.1
16:05 1023 30.21 852 25.16 20.8 69.4 24 -0.4 31.3
16:10 1023 30.21 852 25.16 21.7 71.1 23 -0.3 31.4
16:15 1023 30.21 852 25.16 22.4 72.3 23 0.2 32.4
16:20 1023 30.21 852 25.16 21.6 70.8 24 0.2 32.3
16:25 1023 30.21 852 25.16 21.1 70 24 -0.1 31.8
16:30 1023 30.21 852 25.16 20.9 69.7 24 0 32
16:35 1023 30.21 852 25.16 20.5 69 25 -0.3 31.5
16:40 1023 30.21 852 25.16 20.6 69.1 24 -0.7 30.7
16:45 1022 30.18 852 25.16 21.7 71.1 23 0 32.1
16:50 1022 30.18 852 25.16 21.6 70.9 24 0.1 32.2
16:55 1022 30.18 852 25.16 20.7 69.2 24 -0.3 31.4
17:00 1022 30.18 852 25.16 20.4 68.6 24 -0.5 31
17:05 1022 30.18 851 25.13 20.8 69.5 24 -0.5 31.1
17:10 1022 30.18 851 25.13 21.7 71 24 0.1 32.2
17:15 1022 30.18 851 25.13 21.2 70.2 25 0.5 32.9
17:20 1022 30.18 851 25.13 21.5 70.7 24 0.1 32.1
17:25 1022 30.18 851 25.13 21.5 70.6 24 -0 31.9
17:30 1022 30.18 851 25.13 22.2 72 24 0.9 33.6
17:35 1022 30.18 851 25.13 22.5 72.4 22 -0.2 31.7
17:40 1022 30.18 851 25.13 22.6 72.7 22 0.2 32.4
17:45 1022 30.18 851 25.13 23 73.3 21 -0 31.9
17:50 1022 30.18 851 25.13 23 73.4 22 0.2 32.3
17:55 1022 30.18 851 25.13 23.1 73.6 22 0.3 32.5
18:00 1022 30.18 851 25.13 22.7 72.8 23 0.7 33.3
18:05 1022 30.18 851 25.13 22.1 71.8 23 0.5 32.9
18:10 1022 30.18 851 25.13 21.6 70.8 25 1 33.8
18:15 1022 30.18 851 25.13 21.5 70.6 26 1.4 34.5
18:20 1022 30.18 851 25.13 21.2 70.1 27 1.4 34.5
18:25 1022 30.18 851 25.13 20.7 69.3 27 1.4 34.6
18:30 1021 30.15 851 25.13 20.7 69.2 29 2.3 36.2
18:35 1021 30.15 851 25.13 20.6 69.1 28 1.4 34.5
18:40 1021 30.15 851 25.13 19.8 67.7 32 3 37.4
18:45 1021 30.15 850 25.1 19.7 67.5 28 1 33.8
18:50 1021 30.15 850 25.1 19.3 66.7 32 2.4 36.4
18:55 1021 30.15 850 25.1 19.4 66.9 30 1.6 34.8
19:00 1021 30.15 850 25.1 19 66.2 36 3.8 38.8
19:05 1021 30.15 850 25.1 18.3 65 38 4 39.2
19:10 1021 30.15 850 25.1 17.1 62.7 43 4.6 40.3
19:15 1021 30.15 850 25.1 16.7 62 45 4.8 40.6
19:20 1021 30.15 850 25.1 16.1 61 44 3.9 39
19:25 1021 30.15 850 25.1 15.5 59.9 51 5.5 41.9
19:30 1021 30.15 850 25.1 15.2 59.3 47 3.9 39
19:35 1021 30.15 850 25.1 14.5 58.2 52 4.7 40.5
19:40 1021 30.15 850 25.1 14 57.2 49 3.5 38.2
19:45 1021 30.15 850 25.1 13.6 56.5 57 5.2 41.4
19:50 1021 30.15 850 25.1 13.4 56.2 49 3.1 37.6
19:55 1021 30.15 850 25.1 13.2 55.8 53 3.9 39
20:00 1021 30.15 850 25.1 13.2 55.7 50 2.9 37.3
20:05 1021 30.15 850 25.1 13 55.3 50 2.9 37.2
20:10 1021 30.15 850 25.1 13 55.3 49 2.7 36.8
20:15 1021 30.15 850 25.1 12.8 55 51 2.9 37.3
20:20 1021 30.15 850 25.1 12.3 54.2 54 3.3 38
20:25 1021 30.15 850 25.1 12 53.6 54 2.9 37.3
20:30 1021 30.15 850 25.1 12.1 53.7 52 2.5 36.5
20:35 1021 30.15 850 25.1 12.4 54.3 49 2 35.5
20:40 1021 30.15 850 25.1 12.8 55.1 47 1.9 35.4
20:45 1021 30.15 850 25.1 13 55.3 46 1.8 35.2
20:50 1021 30.15 850 25.1 13 55.5 45 1.3 34.4
20:55 1021 30.15 850 25.1 13.1 55.6 45 1.5 34.6
21:00 1021 30.15 850 25.1 12.8 55.1 45 1.3 34.4
21:05 1021 30.15 850 25.1 12.9 55.2 45 1.2 34.1
21:10 1021 30.15 850 25.1 13 55.4 44 1.1 33.9
21:15 1021 30.15 850 25.1 13 55.4 44 1 33.8
21:20 1021 30.15 851 25.13 13 55.4 43 0.9 33.6
21:25 1021 30.15 851 25.13 13 55.5 43 0.7 33.3
21:30 1021 30.15 851 25.13 13.3 55.9 42 0.8 33.4
21:35 1021 30.15 851 25.13 12.9 55.2 44 1.1 33.9
21:40 1021 30.15 851 25.13 12.6 54.6 45 1 33.8
21:45 1021 30.15 851 25.13 12.4 54.3 45 0.9 33.6
21:50 1021 30.15 851 25.13 12.6 54.7 44 0.8 33.5
21:55 1021 30.15 851 25.13 12.4 54.2 45 1 33.8
22:00 1021 30.15 851 25.13 12.2 54 45 0.8 33.5
22:05 1021 30.15 851 25.13 12.2 54 45 0.6 33.1
22:10 1021 30.15 851 25.13 12.2 54 44 0.5 32.9
22:15 1021 30.15 851 25.13 12.2 53.9 45 0.6 33.1
22:20 1021 30.15 851 25.13 12.1 53.8 45 0.6 33.1
22:25 1021 30.15 851 25.13 12.2 53.9 44 0.3 32.5
22:30 1021 30.15 851 25.13 12.1 53.8 45 0.6 33.1
22:35 1021 30.15 851 25.13 12.1 53.7 44 0.2 32.3
22:40 1021 30.15 851 25.13 12.3 54.1 43 0.2 32.4
22:45 1022 30.18 851 25.13 12.2 53.9 44 0.4 32.7
22:50 1022 30.18 851 25.13 12 53.6 45 0.5 32.8
22:55 1022 30.18 851 25.13 11.8 53.2 46 0.6 33.1
23:00 1022 30.18 851 25.13 11.6 52.8 50 1.5 34.7
23:05 1022 30.18 851 25.13 11.4 52.5 50 1.5 34.7
23:10 1022 30.18 851 25.13 11.3 52.3 49 1.1 34
23:15 1022 30.18 851 25.13 11.5 52.7 48 0.8 33.4
23:20 1022 30.18 851 25.13 11.7 53.1 47 0.8 33.4
23:25 1022 30.18 851 25.13 11.2 52.2 52 1.8 35.2
23:30 1022 30.18 851 25.13 10.6 51.1 51 1 33.7
23:35 1022 30.18 851 25.13 10.6 51.1 52 1.3 34.3
23:40 1022 30.18 851 25.13 10.4 50.6 53 1.1 34
23:45 1022 30.18 851 25.13 10 49.9 54 1.1 34.1
23:50 1022 30.18 851 25.13 9.6 49.2 54 0.8 33.5
23:55 1022 30.18 851 25.13 9.4 49 56 1 33.9
24:00 1022 30.18 851 25.13 9.2 48.5 56 0.9 33.6